sensor_id;sensor_type;location;lat;lon;timestamp;temperature;humidity
23755;DHT22;12057;52.042;6.830;2023-08-20T00:04:19;20.40;99.90
23755;DHT22;12057;52.042;6.830;2023-08-20T00:09:21;20.50;99.90
23755;DHT22;12057;52.042;6.830;2023-08-20T00:19:59;20.40;99.90
23755;DHT22;12057;52.042;6.830;2023-08-20T00:25:00;20.40;99.90
23755;DHT22;12057;52.042;6.830;2023-08-20T00:30:00;20.40;99.90
23755;DHT22;12057;52.042;6.830;2023-08-20T00:35:01;20.40;99.90
23755;DHT22;12057;52.042;6.830;2023-08-20T00:40:08;20.30;99.90
23755;DHT22;12057;52.042;6.830;2023-08-20T00:45:10;20.10;99.90
23755;DHT22;12057;52.042;6.830;2023-08-20T00:50:11;20.10;99.90
23755;DHT22;12057;52.042;6.830;2023-08-20T00:55:15;20.00;99.90
23755;DHT22;12057;52.042;6.830;2023-08-20T01:00:17;19.90;99.90
23755;DHT22;12057;52.042;6.830;2023-08-20T01:05:19;19.90;99.90
23755;DHT22;12057;52.042;6.830;2023-08-20T01:10:24;19.80;99.90
23755;DHT22;12057;52.042;6.830;2023-08-20T01:15:27;19.80;99.90
23755;DHT22;12057;52.042;6.830;2023-08-20T01:20:32;19.70;99.90
23755;DHT22;12057;52.042;6.830;2023-08-20T01:31:22;19.70;99.90
23755;DHT22;12057;52.042;6.830;2023-08-20T01:36:23;19.60;99.90
23755;DHT22;12057;52.042;6.830;2023-08-20T01:41:24;19.60;99.90
23755;DHT22;12057;52.042;6.830;2023-08-20T01:46:25;19.50;99.90
23755;DHT22;12057;52.042;6.830;2023-08-20T01:51:26;19.50;99.90
23755;DHT22;12057;52.042;6.830;2023-08-20T01:56:26;19.60;99.90
23755;DHT22;12057;52.042;6.830;2023-08-20T02:01:27;19.70;99.90
23755;DHT22;12057;52.042;6.830;2023-08-20T02:06:28;19.70;99.90
23755;DHT22;12057;52.042;6.830;2023-08-20T02:11:29;19.80;99.90
23755;DHT22;12057;52.042;6.830;2023-08-20T02:16:30;19.80;99.90
23755;DHT22;12057;52.042;6.830;2023-08-20T02:21:31;19.80;99.90
23755;DHT22;12057;52.042;6.830;2023-08-20T02:26:32;19.90;99.90
23755;DHT22;12057;52.042;6.830;2023-08-20T02:31:32;19.90;99.90
23755;DHT22;12057;52.042;6.830;2023-08-20T02:36:33;19.90;99.90
23755;DHT22;12057;52.042;6.830;2023-08-20T02:41:35;19.90;99.90
23755;DHT22;12057;52.042;6.830;2023-08-20T02:46:36;19.90;99.90
23755;DHT22;12057;52.042;6.830;2023-08-20T02:51:38;19.70;99.90
23755;DHT22;12057;52.042;6.830;2023-08-20T02:56:39;19.70;99.90
23755;DHT22;12057;52.042;6.830;2023-08-20T03:01:40;19.60;99.90
23755;DHT22;12057;52.042;6.830;2023-08-20T03:06:41;19.60;99.90
23755;DHT22;12057;52.042;6.830;2023-08-20T03:11:42;19.60;99.90
23755;DHT22;12057;52.042;6.830;2023-08-20T03:16:43;19.70;99.90
23755;DHT22;12057;52.042;6.830;2023-08-20T03:21:44;19.70;99.90
23755;DHT22;12057;52.042;6.830;2023-08-20T03:26:44;19.80;99.90
23755;DHT22;12057;52.042;6.830;2023-08-20T03:31:46;19.80;99.90
23755;DHT22;12057;52.042;6.830;2023-08-20T03:36:47;19.80;99.90
23755;DHT22;12057;52.042;6.830;2023-08-20T03:41:49;19.70;99.90
23755;DHT22;12057;52.042;6.830;2023-08-20T03:46:50;19.70;99.90
23755;DHT22;12057;52.042;6.830;2023-08-20T03:51:51;19.70;99.90
23755;DHT22;12057;52.042;6.830;2023-08-20T03:56:51;19.80;99.90
23755;DHT22;12057;52.042;6.830;2023-08-20T04:01:52;19.70;99.90
23755;DHT22;12057;52.042;6.830;2023-08-20T04:06:53;19.60;99.90
23755;DHT22;12057;52.042;6.830;2023-08-20T04:11:54;19.70;99.90
23755;DHT22;12057;52.042;6.830;2023-08-20T04:16:55;19.70;99.90
23755;DHT22;12057;52.042;6.830;2023-08-20T04:21:55;19.70;99.90
23755;DHT22;12057;52.042;6.830;2023-08-20T04:26:56;19.70;99.90
23755;DHT22;12057;52.042;6.830;2023-08-20T04:31:57;19.70;99.90
23755;DHT22;12057;52.042;6.830;2023-08-20T04:36:58;19.60;99.90
23755;DHT22;12057;52.042;6.830;2023-08-20T04:41:59;19.60;99.90
23755;DHT22;12057;52.042;6.830;2023-08-20T04:47:00;19.60;99.90
23755;DHT22;12057;52.042;6.830;2023-08-20T04:52:01;19.60;99.90
23755;DHT22;12057;52.042;6.830;2023-08-20T04:57:02;19.60;99.90
23755;DHT22;12057;52.042;6.830;2023-08-20T05:02:03;19.70;99.90
23755;DHT22;12057;52.042;6.830;2023-08-20T05:07:04;19.60;99.90
23755;DHT22;12057;52.042;6.830;2023-08-20T05:12:05;19.60;99.90
23755;DHT22;12057;52.042;6.830;2023-08-20T05:17:06;19.60;99.90
23755;DHT22;12057;52.042;6.830;2023-08-20T05:22:07;19.80;99.90
23755;DHT22;12057;52.042;6.830;2023-08-20T05:27:09;19.80;99.90
23755;DHT22;12057;52.042;6.830;2023-08-20T05:32:10;19.90;99.90
23755;DHT22;12057;52.042;6.830;2023-08-20T05:37:11;20.00;99.90
23755;DHT22;12057;52.042;6.830;2023-08-20T05:42:12;20.10;99.90
23755;DHT22;12057;52.042;6.830;2023-08-20T05:47:13;20.20;99.90
23755;DHT22;12057;52.042;6.830;2023-08-20T05:52:17;20.30;99.90
23755;DHT22;12057;52.042;6.830;2023-08-20T05:57:18;20.30;99.90
23755;DHT22;12057;52.042;6.830;2023-08-20T06:02:19;20.40;99.90
23755;DHT22;12057;52.042;6.830;2023-08-20T06:07:19;20.50;99.90
23755;DHT22;12057;52.042;6.830;2023-08-20T06:12:20;20.70;99.90
23755;DHT22;12057;52.042;6.830;2023-08-20T06:17:21;20.70;99.90
23755;DHT22;12057;52.042;6.830;2023-08-20T06:22:22;20.90;99.90
23755;DHT22;12057;52.042;6.830;2023-08-20T06:27:23;21.00;99.90
23755;DHT22;12057;52.042;6.830;2023-08-20T06:32:24;21.30;99.90
23755;DHT22;12057;52.042;6.830;2023-08-20T06:37:25;21.50;99.90
23755;DHT22;12057;52.042;6.830;2023-08-20T06:42:25;21.60;99.90
23755;DHT22;12057;52.042;6.830;2023-08-20T06:47:26;21.90;99.90
23755;DHT22;12057;52.042;6.830;2023-08-20T06:52:27;22.10;99.90
23755;DHT22;12057;52.042;6.830;2023-08-20T06:57:28;22.30;99.90
23755;DHT22;12057;52.042;6.830;2023-08-20T07:02:28;22.30;99.90
23755;DHT22;12057;52.042;6.830;2023-08-20T07:07:29;22.60;99.90
23755;DHT22;12057;52.042;6.830;2023-08-20T07:12:30;22.90;99.90
23755;DHT22;12057;52.042;6.830;2023-08-20T07:17:31;23.20;99.90
23755;DHT22;12057;52.042;6.830;2023-08-20T07:22:31;23.30;99.90
23755;DHT22;12057;52.042;6.830;2023-08-20T07:27:34;23.60;99.90
23755;DHT22;12057;52.042;6.830;2023-08-20T07:32:38;23.90;99.90
23755;DHT22;12057;52.042;6.830;2023-08-20T07:37:39;24.30;99.90
23755;DHT22;12057;52.042;6.830;2023-08-20T07:42:43;24.40;99.90
23755;DHT22;12057;52.042;6.830;2023-08-20T07:47:44;24.40;99.90
23755;DHT22;12057;52.042;6.830;2023-08-20T07:52:44;24.70;99.90
23755;DHT22;12057;52.042;6.830;2023-08-20T07:57:45;25.10;99.90
23755;DHT22;12057;52.042;6.830;2023-08-20T08:02:46;25.40;99.90
23755;DHT22;12057;52.042;6.830;2023-08-20T08:07:47;25.60;99.90
23755;DHT22;12057;52.042;6.830;2023-08-20T08:12:47;25.80;99.90
23755;DHT22;12057;52.042;6.830;2023-08-20T08:17:48;25.70;99.90
23755;DHT22;12057;52.042;6.830;2023-08-20T08:22:49;25.60;99.90
23755;DHT22;12057;52.042;6.830;2023-08-20T08:27:50;25.50;99.90
23755;DHT22;12057;52.042;6.830;2023-08-20T08:32:50;25.40;99.90
23755;DHT22;12057;52.042;6.830;2023-08-20T08:37:51;25.40;99.90
23755;DHT22;12057;52.042;6.830;2023-08-20T08:42:52;25.60;99.90
23755;DHT22;12057;52.042;6.830;2023-08-20T08:47:54;25.90;99.90
23755;DHT22;12057;52.042;6.830;2023-08-20T08:52:55;26.20;99.90
23755;DHT22;12057;52.042;6.830;2023-08-20T08:57:57;26.20;99.90
23755;DHT22;12057;52.042;6.830;2023-08-20T09:02:58;26.30;99.90
23755;DHT22;12057;52.042;6.830;2023-08-20T09:07:59;26.60;99.90
23755;DHT22;12057;52.042;6.830;2023-08-20T09:13:00;26.70;99.90
23755;DHT22;12057;52.042;6.830;2023-08-20T09:18:02;26.90;99.90
23755;DHT22;12057;52.042;6.830;2023-08-20T09:23:12;27.00;99.90
23755;DHT22;12057;52.042;6.830;2023-08-20T09:28:14;27.00;99.90
23755;DHT22;12057;52.042;6.830;2023-08-20T09:33:15;27.20;99.90
23755;DHT22;12057;52.042;6.830;2023-08-20T09:38:19;27.60;99.90
23755;DHT22;12057;52.042;6.830;2023-08-20T09:43:25;27.90;99.90
23755;DHT22;12057;52.042;6.830;2023-08-20T09:48:33;28.30;99.90
23755;DHT22;12057;52.042;6.830;2023-08-20T09:58:56;28.10;99.90
23755;DHT22;12057;52.042;6.830;2023-08-20T10:03:57;28.10;99.90
23755;DHT22;12057;52.042;6.830;2023-08-20T10:08:59;28.00;99.90
23755;DHT22;12057;52.042;6.830;2023-08-20T10:14:00;28.10;99.90
23755;DHT22;12057;52.042;6.830;2023-08-20T10:19:03;28.10;99.90
23755;DHT22;12057;52.042;6.830;2023-08-20T10:24:07;28.50;99.90
23755;DHT22;12057;52.042;6.830;2023-08-20T10:34:43;29.10;99.90
23755;DHT22;12057;52.042;6.830;2023-08-20T10:39:53;29.30;99.90
23755;DHT22;12057;52.042;6.830;2023-08-20T10:45:15;29.00;99.90
23755;DHT22;12057;52.042;6.830;2023-08-20T10:50:18;29.10;99.90
23755;DHT22;12057;52.042;6.830;2023-08-20T10:55:22;29.30;99.90
23755;DHT22;12057;52.042;6.830;2023-08-20T11:00:24;29.60;99.90
23755;DHT22;12057;52.042;6.830;2023-08-20T11:05:24;29.70;99.90
23755;DHT22;12057;52.042;6.830;2023-08-20T11:10:26;29.70;99.90
23755;DHT22;12057;52.042;6.830;2023-08-20T11:15:27;30.00;99.90
23755;DHT22;12057;52.042;6.830;2023-08-20T11:20:28;30.20;99.90
23755;DHT22;12057;52.042;6.830;2023-08-20T11:25:28;30.60;99.90
23755;DHT22;12057;52.042;6.830;2023-08-20T11:30:29;30.10;99.90
23755;DHT22;12057;52.042;6.830;2023-08-20T11:35:31;30.20;99.90
23755;DHT22;12057;52.042;6.830;2023-08-20T11:40:31;30.10;99.90
23755;DHT22;12057;52.042;6.830;2023-08-20T11:45:32;29.80;99.90
23755;DHT22;12057;52.042;6.830;2023-08-20T11:50:33;29.90;99.90
23755;DHT22;12057;52.042;6.830;2023-08-20T11:55:39;30.10;99.90
23755;DHT22;12057;52.042;6.830;2023-08-20T12:00:40;30.20;99.90
23755;DHT22;12057;52.042;6.830;2023-08-20T12:05:41;30.10;99.90
23755;DHT22;12057;52.042;6.830;2023-08-20T12:10:43;30.20;99.90
23755;DHT22;12057;52.042;6.830;2023-08-20T12:15:43;30.20;98.70
23755;DHT22;12057;52.042;6.830;2023-08-20T12:20:44;30.60;99.90
23755;DHT22;12057;52.042;6.830;2023-08-20T12:25:49;30.70;99.90
23755;DHT22;12057;52.042;6.830;2023-08-20T12:30:50;31.10;97.50
23755;DHT22;12057;52.042;6.830;2023-08-20T12:35:53;31.10;96.80
23755;DHT22;12057;52.042;6.830;2023-08-20T12:40:54;30.90;95.50
23755;DHT22;12057;52.042;6.830;2023-08-20T12:45:55;31.00;98.50
23755;DHT22;12057;52.042;6.830;2023-08-20T12:50:56;31.30;96.80
23755;DHT22;12057;52.042;6.830;2023-08-20T12:55:57;31.00;95.70
23755;DHT22;12057;52.042;6.830;2023-08-20T13:00:57;31.10;95.10
23755;DHT22;12057;52.042;6.830;2023-08-20T13:05:58;31.20;96.00
23755;DHT22;12057;52.042;6.830;2023-08-20T13:11:00;31.10;94.90
23755;DHT22;12057;52.042;6.830;2023-08-20T13:16:04;31.20;92.60
23755;DHT22;12057;52.042;6.830;2023-08-20T13:21:04;31.10;94.80
23755;DHT22;12057;52.042;6.830;2023-08-20T13:26:05;31.00;94.90
23755;DHT22;12057;52.042;6.830;2023-08-20T13:31:06;31.20;93.90
23755;DHT22;12057;52.042;6.830;2023-08-20T13:36:07;31.40;93.60
23755;DHT22;12057;52.042;6.830;2023-08-20T13:41:08;31.30;92.00
23755;DHT22;12057;52.042;6.830;2023-08-20T13:46:10;31.80;93.50
23755;DHT22;12057;52.042;6.830;2023-08-20T13:51:11;31.20;93.60
23755;DHT22;12057;52.042;6.830;2023-08-20T13:56:14;31.10;92.80
23755;DHT22;12057;52.042;6.830;2023-08-20T14:01:15;31.70;93.90
23755;DHT22;12057;52.042;6.830;2023-08-20T14:06:17;31.70;93.30
23755;DHT22;12057;52.042;6.830;2023-08-20T14:11:18;31.80;93.40
23755;DHT22;12057;52.042;6.830;2023-08-20T14:16:19;31.60;92.70
23755;DHT22;12057;52.042;6.830;2023-08-20T14:21:20;31.50;93.80
23755;DHT22;12057;52.042;6.830;2023-08-20T14:26:20;31.20;93.60
23755;DHT22;12057;52.042;6.830;2023-08-20T14:31:21;31.10;93.90
23755;DHT22;12057;52.042;6.830;2023-08-20T14:36:22;31.10;92.40
23755;DHT22;12057;52.042;6.830;2023-08-20T14:41:22;30.90;94.00
23755;DHT22;12057;52.042;6.830;2023-08-20T14:46:24;31.00;93.20
23755;DHT22;12057;52.042;6.830;2023-08-20T14:51:24;30.90;93.50
23755;DHT22;12057;52.042;6.830;2023-08-20T14:56:25;31.20;93.00
23755;DHT22;12057;52.042;6.830;2023-08-20T15:01:26;30.90;92.50
23755;DHT22;12057;52.042;6.830;2023-08-20T15:06:28;30.70;91.80
23755;DHT22;12057;52.042;6.830;2023-08-20T15:11:29;31.00;91.70
23755;DHT22;12057;52.042;6.830;2023-08-20T15:16:29;30.70;91.40
23755;DHT22;12057;52.042;6.830;2023-08-20T15:21:30;30.90;91.40
23755;DHT22;12057;52.042;6.830;2023-08-20T15:26:31;30.80;92.00
23755;DHT22;12057;52.042;6.830;2023-08-20T15:31:32;30.80;91.30
23755;DHT22;12057;52.042;6.830;2023-08-20T15:36:33;30.80;91.40
23755;DHT22;12057;52.042;6.830;2023-08-20T15:41:34;30.70;91.60
23755;DHT22;12057;52.042;6.830;2023-08-20T15:46:34;30.60;92.20
23755;DHT22;12057;52.042;6.830;2023-08-20T15:51:36;30.40;92.90
23755;DHT22;12057;52.042;6.830;2023-08-20T15:56:38;30.10;92.50
23755;DHT22;12057;52.042;6.830;2023-08-20T16:01:39;30.10;94.70
23755;DHT22;12057;52.042;6.830;2023-08-20T16:06:40;30.00;94.50
23755;DHT22;12057;52.042;6.830;2023-08-20T16:11:41;29.90;92.10
23755;DHT22;12057;52.042;6.830;2023-08-20T16:16:41;29.70;93.50
23755;DHT22;12057;52.042;6.830;2023-08-20T16:21:42;29.80;92.50
23755;DHT22;12057;52.042;6.830;2023-08-20T16:26:43;29.90;93.40
23755;DHT22;12057;52.042;6.830;2023-08-20T16:31:44;29.80;93.50
23755;DHT22;12057;52.042;6.830;2023-08-20T16:36:44;29.10;92.00
23755;DHT22;12057;52.042;6.830;2023-08-20T16:41:45;28.90;94.10
23755;DHT22;12057;52.042;6.830;2023-08-20T16:46:47;28.80;94.00
23755;DHT22;12057;52.042;6.830;2023-08-20T16:51:48;28.60;94.10
23755;DHT22;12057;52.042;6.830;2023-08-20T16:56:48;28.30;94.80
23755;DHT22;12057;52.042;6.830;2023-08-20T17:01:49;28.10;94.10
23755;DHT22;12057;52.042;6.830;2023-08-20T17:06:50;27.90;94.50
23755;DHT22;12057;52.042;6.830;2023-08-20T17:11:51;27.80;95.80
23755;DHT22;12057;52.042;6.830;2023-08-20T17:16:52;27.70;94.70
23755;DHT22;12057;52.042;6.830;2023-08-20T17:21:53;27.50;95.00
23755;DHT22;12057;52.042;6.830;2023-08-20T17:26:53;27.60;95.20
23755;DHT22;12057;52.042;6.830;2023-08-20T17:31:54;27.60;95.40
23755;DHT22;12057;52.042;6.830;2023-08-20T17:36:55;27.60;96.10
23755;DHT22;12057;52.042;6.830;2023-08-20T17:41:56;27.60;96.40
23755;DHT22;12057;52.042;6.830;2023-08-20T17:46:57;27.40;96.30
23755;DHT22;12057;52.042;6.830;2023-08-20T17:51:58;27.30;96.70
23755;DHT22;12057;52.042;6.830;2023-08-20T17:56:58;27.30;96.80
23755;DHT22;12057;52.042;6.830;2023-08-20T18:02:00;27.20;97.00
23755;DHT22;12057;52.042;6.830;2023-08-20T18:07:04;27.20;98.20
23755;DHT22;12057;52.042;6.830;2023-08-20T18:12:05;27.00;97.40
23755;DHT22;12057;52.042;6.830;2023-08-20T18:17:06;26.90;98.90
23755;DHT22;12057;52.042;6.830;2023-08-20T18:22:06;26.70;98.60
23755;DHT22;12057;52.042;6.830;2023-08-20T18:27:07;26.60;99.10
23755;DHT22;12057;52.042;6.830;2023-08-20T18:32:08;26.40;99.70
23755;DHT22;12057;52.042;6.830;2023-08-20T18:37:09;26.30;99.90
23755;DHT22;12057;52.042;6.830;2023-08-20T18:42:10;26.20;99.90
23755;DHT22;12057;52.042;6.830;2023-08-20T18:47:10;26.00;99.90
23755;DHT22;12057;52.042;6.830;2023-08-20T18:52:11;25.90;99.90
23755;DHT22;12057;52.042;6.830;2023-08-20T18:57:12;25.60;99.90
23755;DHT22;12057;52.042;6.830;2023-08-20T19:02:13;25.50;99.90
23755;DHT22;12057;52.042;6.830;2023-08-20T19:07:14;25.40;99.90
23755;DHT22;12057;52.042;6.830;2023-08-20T19:12:15;25.30;99.90
23755;DHT22;12057;52.042;6.830;2023-08-20T19:17:16;25.20;99.90
23755;DHT22;12057;52.042;6.830;2023-08-20T19:22:16;25.00;99.90
23755;DHT22;12057;52.042;6.830;2023-08-20T19:27:17;24.90;99.90
23755;DHT22;12057;52.042;6.830;2023-08-20T19:32:18;24.80;99.90
23755;DHT22;12057;52.042;6.830;2023-08-20T19:37:19;24.60;99.90
23755;DHT22;12057;52.042;6.830;2023-08-20T19:42:20;24.50;99.90
23755;DHT22;12057;52.042;6.830;2023-08-20T19:47:21;24.40;99.90
23755;DHT22;12057;52.042;6.830;2023-08-20T19:52:21;24.40;99.90
23755;DHT22;12057;52.042;6.830;2023-08-20T19:57:22;24.20;99.90
23755;DHT22;12057;52.042;6.830;2023-08-20T20:02:23;24.10;99.90
23755;DHT22;12057;52.042;6.830;2023-08-20T20:07:24;24.00;99.90
23755;DHT22;12057;52.042;6.830;2023-08-20T20:12:25;24.00;99.90
23755;DHT22;12057;52.042;6.830;2023-08-20T20:17:25;23.90;99.90
23755;DHT22;12057;52.042;6.830;2023-08-20T20:22:26;23.70;99.90
23755;DHT22;12057;52.042;6.830;2023-08-20T20:27:27;23.70;99.90
23755;DHT22;12057;52.042;6.830;2023-08-20T20:32:28;23.50;99.90
23755;DHT22;12057;52.042;6.830;2023-08-20T20:37:29;23.50;99.90
23755;DHT22;12057;52.042;6.830;2023-08-20T20:42:32;23.40;99.90
23755;DHT22;12057;52.042;6.830;2023-08-20T20:47:33;23.40;99.90
23755;DHT22;12057;52.042;6.830;2023-08-20T20:52:33;23.30;99.90
23755;DHT22;12057;52.042;6.830;2023-08-20T20:57:34;23.20;99.90
23755;DHT22;12057;52.042;6.830;2023-08-20T21:02:36;23.10;99.90
23755;DHT22;12057;52.042;6.830;2023-08-20T21:07:37;23.10;99.90
23755;DHT22;12057;52.042;6.830;2023-08-20T21:12:38;23.00;99.90
23755;DHT22;12057;52.042;6.830;2023-08-20T21:17:39;22.90;99.90
23755;DHT22;12057;52.042;6.830;2023-08-20T21:22:39;23.00;99.90
23755;DHT22;12057;52.042;6.830;2023-08-20T21:27:40;22.90;99.90
23755;DHT22;12057;52.042;6.830;2023-08-20T21:32:42;22.70;99.90
23755;DHT22;12057;52.042;6.830;2023-08-20T21:37:44;22.60;99.90
23755;DHT22;12057;52.042;6.830;2023-08-20T21:42:44;22.60;99.90
23755;DHT22;12057;52.042;6.830;2023-08-20T21:47:45;22.50;99.90
23755;DHT22;12057;52.042;6.830;2023-08-20T21:52:49;22.50;99.90
23755;DHT22;12057;52.042;6.830;2023-08-20T21:57:50;22.40;99.90
23755;DHT22;12057;52.042;6.830;2023-08-20T22:02:51;22.50;99.90
23755;DHT22;12057;52.042;6.830;2023-08-20T22:07:52;22.40;99.90
23755;DHT22;12057;52.042;6.830;2023-08-20T22:12:53;22.40;99.90
23755;DHT22;12057;52.042;6.830;2023-08-20T22:17:54;22.30;99.90
23755;DHT22;12057;52.042;6.830;2023-08-20T22:22:55;22.30;99.90
23755;DHT22;12057;52.042;6.830;2023-08-20T22:27:56;22.30;99.90
23755;DHT22;12057;52.042;6.830;2023-08-20T22:32:57;22.20;99.90
23755;DHT22;12057;52.042;6.830;2023-08-20T22:38:08;22.10;99.90
23755;DHT22;12057;52.042;6.830;2023-08-20T22:43:10;22.10;99.90
23755;DHT22;12057;52.042;6.830;2023-08-20T22:48:10;22.20;99.90
23755;DHT22;12057;52.042;6.830;2023-08-20T22:53:11;22.20;99.90
23755;DHT22;12057;52.042;6.830;2023-08-20T22:58:17;22.20;99.90
23755;DHT22;12057;52.042;6.830;2023-08-20T23:03:20;22.10;99.90
23755;DHT22;12057;52.042;6.830;2023-08-20T23:08:20;22.20;99.90
23755;DHT22;12057;52.042;6.830;2023-08-20T23:13:21;22.00;99.90
23755;DHT22;12057;52.042;6.830;2023-08-20T23:18:22;22.00;99.90
23755;DHT22;12057;52.042;6.830;2023-08-20T23:23:23;22.00;99.90
23755;DHT22;12057;52.042;6.830;2023-08-20T23:28:24;21.90;99.90
23755;DHT22;12057;52.042;6.830;2023-08-20T23:33:24;22.00;99.90
23755;DHT22;12057;52.042;6.830;2023-08-20T23:38:25;22.10;99.90
23755;DHT22;12057;52.042;6.830;2023-08-20T23:43:26;22.10;99.90
23755;DHT22;12057;52.042;6.830;2023-08-20T23:48:27;22.00;99.90
23755;DHT22;12057;52.042;6.830;2023-08-20T23:53:28;21.90;99.90
23755;DHT22;12057;52.042;6.830;2023-08-20T23:58:28;22.00;99.90
